Time;durP1;ratioP1;P1;durP2;ratioP2;P2;SDS_P1;SDS_P2;PMS_P1;PMS_P2;Temp;Humidity;BMP_temperature;BMP_pressure;BME280_temperature;BME280_humidity;BME280_pressure;Samples;Min_cycle;Max_cycle;Signal;HPM_P1;HPM_P2
2023/06/01 00:01:53;;;;;;;12.45;5.40;;;12.00;99.90;;;;;;5119744;28;20040;-58
2023/06/01 00:04:18;;;;;;;12.65;4.97;;;12.10;99.90;;;;;;5119538;28;20108;-58
2023/06/01 00:06:44;;;;;;;11.43;4.93;;;12.00;99.90;;;;;;5119627;28;20040;-57
2023/06/01 00:09:10;;;;;;;13.00;5.50;;;12.10;99.90;;;;;;5119369;28;20074;-57
2023/06/01 00:11:36;;;;;;;14.68;5.30;;;12.10;99.90;;;;;;5119686;28;20036;-58
2023/06/01 00:14:02;;;;;;;13.07;4.95;;;12.00;99.90;;;;;;5119344;28;20047;-57
2023/06/01 00:16:31;;;;;;;14.68;5.45;;;12.00;99.90;;;;;;5119029;28;20706;-57
2023/06/01 00:19:00;;;;;;;12.40;4.53;;;12.00;99.90;;;;;;5119982;28;20036;-58
2023/06/01 00:21:28;;;;;;;14.05;4.85;;;12.00;99.90;;;;;;5119304;28;20039;-58
2023/06/01 00:23:53;;;;;;;11.27;4.80;;;12.00;99.90;;;;;;5101287;28;20054;-58
2023/06/01 00:26:19;;;;;;;14.32;4.95;;;11.80;99.90;;;;;;5118969;28;20039;-58
2023/06/01 00:28:45;;;;;;;13.68;5.22;;;11.80;99.90;;;;;;5119348;28;20051;-58
2023/06/01 00:31:10;;;;;;;16.35;5.20;;;11.70;99.90;;;;;;5118925;28;20028;-58
2023/06/01 00:33:36;;;;;;;14.82;5.20;;;11.70;99.90;;;;;;5119151;28;20043;-57
2023/06/01 00:36:02;;;;;;;12.40;5.43;;;11.80;99.90;;;;;;5119524;28;20523;-57
2023/06/01 00:38:28;;;;;;;15.30;5.28;;;11.80;99.90;;;;;;5118709;28;20039;-57
2023/06/01 00:40:53;;;;;;;17.73;5.35;;;11.80;99.90;;;;;;5119001;28;20035;-57
2023/06/01 00:43:19;;;;;;;14.00;5.38;;;11.80;99.90;;;;;;5118924;28;20035;-57
2023/06/01 00:45:45;;;;;;;15.63;5.50;;;11.70;99.90;;;;;;5118926;28;20044;-57
2023/06/01 00:48:15;;;;;;;16.05;6.15;;;11.70;99.90;;;;;;5118752;28;20044;-58
2023/06/01 00:50:42;;;;;;;16.98;6.63;;;11.70;99.90;;;;;;5118772;28;20076;-57
2023/06/01 00:53:15;;;;;;;15.52;5.60;;;11.80;99.90;;;;;;5117935;28;20046;-57
2023/06/01 00:55:41;;;;;;;12.30;5.93;;;11.70;99.90;;;;;;5118362;28;20070;-57
2023/06/01 00:58:07;;;;;;;13.98;5.30;;;11.80;99.90;;;;;;5118675;28;20598;-57
2023/06/01 01:00:33;;;;;;;12.23;5.28;;;11.70;99.90;;;;;;5118022;28;20039;-57
2023/06/01 01:03:00;;;;;;;13.68;5.30;;;11.60;99.90;;;;;;5118725;28;20647;-57
2023/06/01 01:05:26;;;;;;;11.75;5.00;;;11.70;99.90;;;;;;5117137;28;20059;-57
2023/06/01 01:08:30;;;;;;;17.10;5.40;;;11.70;99.90;;;;;;5118362;28;20064;-58
2023/06/01 01:11:04;;;;;;;19.50;5.45;;;11.60;99.90;;;;;;5117886;28;20158;-57
2023/06/01 01:13:39;;;;;;;13.10;4.40;;;11.60;99.90;;;;;;5118415;28;20050;-57
2023/06/01 01:16:15;;;;;;;13.70;4.95;;;11.70;99.90;;;;;;5118581;28;20047;-58
2023/06/01 01:18:54;;;;;;;12.52;4.57;;;11.50;99.90;;;;;;5118603;28;20063;-58
2023/06/01 01:21:28;;;;;;;10.75;4.80;;;11.50;99.90;;;;;;5118291;28;20047;-58
2023/06/01 01:24:06;;;;;;;10.63;4.80;;;11.50;99.90;;;;;;5116769;28;20050;-57
2023/06/01 01:27:09;;;;;;;9.70;4.43;;;11.50;99.90;;;;;;5118316;28;20087;-58
2023/06/01 01:29:37;;;;;;;11.88;5.13;;;11.50;99.90;;;;;;5118054;28;20040;-57
2023/06/01 01:32:05;;;;;;;13.55;4.63;;;11.50;99.90;;;;;;5118327;28;20083;-57
2023/06/01 01:34:32;;;;;;;12.23;4.88;;;11.60;99.90;;;;;;5118502;28;20039;-57
2023/06/01 01:36:58;;;;;;;8.95;3.83;;;11.40;99.90;;;;;;5117928;28;20048;-58
2023/06/01 01:39:24;;;;;;;12.55;4.22;;;11.50;99.90;;;;;;5117929;28;20248;-57
2023/06/01 01:41:50;;;;;;;11.70;3.83;;;11.50;99.90;;;;;;5116932;28;20149;-58
2023/06/01 01:44:16;;;;;;;14.85;4.00;;;11.50;99.90;;;;;;5118394;28;20088;-57
2023/06/01 01:46:56;;;;;;;12.65;3.92;;;11.60;99.90;;;;;;5117937;28;20068;-57
2023/06/01 01:49:28;;;;;;;9.63;3.58;;;11.60;99.90;;;;;;5118197;28;20058;-57
2023/06/01 01:51:54;;;;;;;;;;;11.60;99.90;;;;;;5118689;28;20501;-56
2023/06/01 01:54:21;;;;;;;12.82;4.32;;;11.60;99.90;;;;;;5118090;28;19959;-57
2023/06/01 01:56:48;;;;;;;10.55;3.92;;;11.50;99.90;;;;;;5117920;28;20619;-57
2023/06/01 01:59:15;;;;;;;11.38;4.07;;;11.60;99.90;;;;;;5117850;28;20048;-57
2023/06/01 02:01:44;;;;;;;12.18;3.97;;;11.60;99.90;;;;;;5118388;28;20077;-57
2023/06/01 02:04:10;;;;;;;9.50;3.58;;;11.50;99.90;;;;;;5117754;28;20040;-58
2023/06/01 02:06:36;;;;;;;12.02;3.78;;;11.60;99.90;;;;;;5118067;28;20073;-57
2023/06/01 02:09:06;;;;;;;8.63;3.63;;;11.60;99.90;;;;;;5117958;28;20035;-57
2023/06/01 02:11:35;;;;;;;11.18;3.72;;;11.60;99.90;;;;;;5118184;28;20050;-57
2023/06/01 02:14:01;;;;;;;8.40;2.95;;;11.60;99.90;;;;;;5117922;28;20036;-58
2023/06/01 02:16:27;;;;;;;11.02;3.22;;;11.50;99.90;;;;;;5117550;28;20055;-57
2023/06/01 02:18:53;;;;;;;7.50;3.42;;;11.50;99.90;;;;;;5118061;28;20043;-58
2023/06/01 02:21:19;;;;;;;8.45;3.35;;;11.50;99.90;;;;;;5117755;28;20043;-57
2023/06/01 02:23:45;;;;;;;9.05;3.30;;;11.50;99.90;;;;;;5120732;28;20062;-57
2023/06/01 02:26:10;;;;;;;10.15;3.92;;;11.50;99.90;;;;;;5121618;28;20407;-57
2023/06/01 02:28:38;;;;;;;10.20;3.72;;;11.40;99.90;;;;;;5121642;28;20043;-58
2023/06/01 02:31:05;;;;;;;9.73;3.88;;;11.50;99.90;;;;;;5121347;28;20051;-57
2023/06/01 02:33:31;;;;;;;10.45;4.40;;;11.40;99.90;;;;;;5121321;28;20043;-58
2023/06/01 02:35:56;;;;;;;10.77;4.22;;;11.40;99.90;;;;;;5122089;28;20047;-57
2023/06/01 02:38:22;;;;;;;11.20;4.07;;;11.50;99.90;;;;;;5121109;28;20048;-58
2023/06/01 02:40:48;;;;;;;9.68;3.67;;;11.50;99.90;;;;;;5120525;28;20050;-57
2023/06/01 02:43:14;;;;;;;11.43;3.80;;;11.50;99.90;;;;;;5121472;28;20491;-57
2023/06/01 02:45:40;;;;;;;9.18;3.67;;;11.50;99.90;;;;;;5121385;28;20423;-57
2023/06/01 02:48:06;;;;;;;9.98;3.67;;;11.50;99.90;;;;;;5120879;28;20047;-58
2023/06/01 02:50:31;;;;;;;10.32;3.97;;;11.50;99.90;;;;;;5121256;28;20056;-58
2023/06/01 02:52:57;;;;;;;9.80;3.38;;;11.40;99.90;;;;;;5120257;28;20050;-57
2023/06/01 02:55:23;;;;;;;10.75;3.47;;;11.50;99.90;;;;;;5120804;28;20075;-57
2023/06/01 02:57:48;;;;;;;12.75;3.72;;;11.40;99.90;;;;;;5121245;28;20112;-58
2023/06/01 03:00:17;;;;;;;10.93;3.08;;;11.40;99.90;;;;;;5121007;28;20047;-58
2023/06/01 03:02:46;;;;;;;9.93;3.88;;;11.40;99.90;;;;;;5120570;28;20050;-58
2023/06/01 03:05:14;;;;;;;9.80;3.78;;;11.30;99.90;;;;;;5120831;28;20075;-58
2023/06/01 03:07:44;;;;;;;9.43;4.43;;;11.20;99.90;;;;;;5119258;28;20606;-57
2023/06/01 03:10:10;;;;;;;12.60;4.20;;;11.40;99.90;;;;;;5121449;28;20039;-58
2023/06/01 03:12:36;;;;;;;13.10;4.00;;;11.30;99.90;;;;;;5120619;28;20036;-57
2023/06/01 03:15:04;;;;;;;12.20;4.90;;;11.30;99.90;;;;;;5121016;28;20064;-58
2023/06/01 03:17:30;;;;;;;12.15;4.53;;;11.30;99.90;;;;;;5119245;28;20479;-57
2023/06/01 03:19:55;;;;;;;15.38;5.03;;;11.30;99.90;;;;;;5120759;28;20036;-57
2023/06/01 03:22:22;;;;;;;13.18;4.57;;;11.40;99.90;;;;;;5119323;28;20051;-57
2023/06/01 03:24:50;;;;;;;12.55;4.60;;;11.40;99.90;;;;;;5120488;28;20488;-57
2023/06/01 03:27:19;;;;;;;10.40;4.68;;;11.40;99.90;;;;;;5121043;28;20043;-57
2023/06/01 03:29:46;;;;;;;12.25;4.18;;;11.30;99.90;;;;;;5120013;28;20055;-57
2023/06/01 03:32:13;;;;;;;17.00;4.70;;;11.40;99.90;;;;;;5119050;28;20078;-56
2023/06/01 03:34:40;;;;;;;12.55;4.05;;;11.40;99.90;;;;;;5119468;28;20044;-57
2023/06/01 03:37:07;;;;;;;11.18;4.25;;;11.40;99.90;;;;;;5120396;28;20058;-57
2023/06/01 03:39:34;;;;;;;13.77;4.70;;;11.30;99.90;;;;;;5120225;28;20058;-57
2023/06/01 03:42:00;;;;;;;12.25;4.50;;;11.40;99.90;;;;;;5119951;28;20047;-57
2023/06/01 03:44:26;;;;;;;16.17;4.25;;;11.40;99.90;;;;;;5120723;28;20223;-58
2023/06/01 03:46:52;;;;;;;12.27;4.13;;;11.50;99.90;;;;;;5120041;28;20070;-57
2023/06/01 03:49:18;;;;;;;12.40;4.70;;;11.40;99.90;;;;;;5120161;28;20135;-56
2023/06/01 03:51:44;;;;;;;12.80;4.57;;;11.40;99.90;;;;;;5120138;28;20095;-57
2023/06/01 03:54:10;;;;;;;11.60;4.40;;;11.40;99.90;;;;;;5119877;28;20046;-58
2023/06/01 03:56:35;;;;;;;14.73;4.80;;;11.50;99.90;;;;;;5119686;28;20043;-57
2023/06/01 03:59:01;;;;;;;13.02;4.32;;;11.40;99.90;;;;;;5119770;28;20044;-58
2023/06/01 04:01:32;;;;;;;9.65;4.75;;;11.40;99.90;;;;;;5119760;28;20050;-57
2023/06/01 04:03:58;;;;;;;12.02;4.50;;;11.40;99.90;;;;;;5119846;28;20951;-57
2023/06/01 04:06:24;;;;;;;11.38;4.65;;;11.40;99.90;;;;;;5119841;28;20099;-57
2023/06/01 04:08:55;;;;;;;10.75;4.50;;;11.40;99.90;;;;;;5119891;28;20044;-57
2023/06/01 04:11:21;;;;;;;11.87;4.50;;;11.40;99.90;;;;;;5119596;28;20079;-57
2023/06/01 04:13:47;;;;;;;13.02;4.82;;;11.30;99.90;;;;;;5119477;28;20040;-58
2023/06/01 04:16:15;;;;;;;12.85;5.25;;;11.30;99.90;;;;;;5119447;28;20046;-57
2023/06/01 04:18:41;;;;;;;13.40;4.80;;;11.30;99.90;;;;;;5118531;28;20040;-57
2023/06/01 04:21:08;;;;;;;11.50;5.13;;;11.30;99.90;;;;;;5119548;28;20376;-58
2023/06/01 04:23:37;;;;;;;12.15;4.50;;;11.20;99.90;;;;;;5119505;28;20043;-57
2023/06/01 04:26:03;;;;;;;11.52;3.83;;;11.20;99.90;;;;;;5119213;28;20055;-56
2023/06/01 04:28:32;;;;;;;12.00;3.78;;;11.30;99.90;;;;;;5119063;28;20130;-57
2023/06/01 04:30:58;;;;;;;14.48;4.82;;;11.20;99.90;;;;;;5118895;28;20081;-57
2023/06/01 04:33:25;;;;;;;12.13;4.68;;;11.30;99.90;;;;;;5119193;28;20035;-58
2023/06/01 04:35:54;;;;;;;12.10;4.30;;;11.20;99.90;;;;;;5119719;28;20098;-57
2023/06/01 04:38:21;;;;;;;12.77;3.80;;;11.30;99.90;;;;;;5117674;28;20096;-56
2023/06/01 04:40:46;;;;;;;14.13;3.95;;;11.40;99.90;;;;;;5117631;28;20047;-57
2023/06/01 04:43:13;;;;;;;10.18;4.57;;;11.30;99.90;;;;;;5118855;28;20040;-57
2023/06/01 04:45:39;;;;;;;11.82;4.18;;;11.40;99.90;;;;;;5118722;28;20051;-57
2023/06/01 04:48:08;;;;;;;10.75;4.20;;;11.50;99.90;;;;;;5118812;28;20078;-57
2023/06/01 04:50:35;;;;;;;8.88;3.58;;;11.30;99.90;;;;;;5117178;28;20057;-58
2023/06/01 04:53:00;;;;;;;8.55;3.20;;;11.30;99.90;;;;;;5119107;28;20114;-57
2023/06/01 04:55:27;;;;;;;10.18;2.97;;;11.30;99.90;;;;;;5118413;28;20043;-58
2023/06/01 04:57:53;;;;;;;9.50;3.33;;;11.30;99.90;;;;;;5118651;28;20043;-58
2023/06/01 05:00:19;;;;;;;9.98;3.78;;;11.30;99.90;;;;;;5117267;28;20051;-57
2023/06/01 05:02:47;;;;;;;13.63;4.40;;;11.40;99.90;;;;;;5118440;28;20069;-57
2023/06/01 05:05:14;;;;;;;10.45;4.20;;;11.40;99.90;;;;;;5116280;28;20095;-58
2023/06/01 05:07:41;;;;;;;9.25;3.95;;;11.40;99.90;;;;;;5114842;28;20551;-56
2023/06/01 05:10:11;;;;;;;10.10;4.10;;;11.40;99.90;;;;;;5115982;28;20062;-57
2023/06/01 05:12:37;;;;;;;11.93;4.28;;;11.30;99.90;;;;;;5115108;28;20040;-56
2023/06/01 05:15:05;;;;;;;11.05;4.30;;;11.40;99.90;;;;;;5115204;28;20051;-57
2023/06/01 05:17:31;;;;;;;10.48;3.97;;;11.40;99.90;;;;;;5114567;28;20130;-57
2023/06/01 05:19:59;;;;;;;11.73;4.78;;;11.40;99.90;;;;;;5114951;28;20550;-58
2023/06/01 05:22:25;;;;;;;14.52;5.75;;;11.40;99.90;;;;;;5115152;28;20139;-57
2023/06/01 05:24:51;;;;;;;11.90;5.68;;;11.30;99.90;;;;;;5115002;28;20082;-57
2023/06/01 05:27:17;;;;;;;10.27;4.32;;;11.20;99.90;;;;;;5115680;28;20051;-56
2023/06/01 05:29:43;;;;;;;10.52;4.57;;;11.40;99.90;;;;;;5114456;28;20036;-57
2023/06/01 05:32:10;;;;;;;13.13;4.30;;;11.30;99.90;;;;;;5113413;28;20040;-57
2023/06/01 05:34:36;;;;;;;10.63;3.90;;;11.40;99.90;;;;;;5113533;28;20130;-58
2023/06/01 05:37:02;;;;;;;8.43;3.83;;;11.20;99.90;;;;;;5114988;28;20075;-57
2023/06/01 05:39:28;;;;;;;12.95;3.67;;;11.30;99.90;;;;;;5114566;28;20050;-57
2023/06/01 05:41:58;;;;;;;10.48;3.60;;;11.40;99.90;;;;;;5114186;28;20102;-57
2023/06/01 05:44:24;;;;;;;8.80;3.25;;;11.40;99.90;;;;;;5115241;28;20075;-56
2023/06/01 05:46:51;;;;;;;11.90;3.63;;;11.50;99.90;;;;;;5114585;28;20043;-57
2023/06/01 05:49:17;;;;;;;12.82;3.50;;;11.50;99.90;;;;;;5114648;28;20384;-57
2023/06/01 05:51:42;;;;;;;8.57;3.63;;;11.50;99.90;;;;;;5114241;28;20126;-57
2023/06/01 05:54:09;;;;;;;11.52;3.55;;;11.60;99.90;;;;;;5114116;28;20055;-57
2023/06/01 05:56:37;;;;;;;11.48;3.42;;;11.60;99.90;;;;;;5114333;28;20749;-57
2023/06/01 05:59:03;;;;;;;11.52;3.97;;;11.70;99.90;;;;;;5117705;28;20045;-57
2023/06/01 06:01:29;;;;;;;9.60;3.50;;;11.70;99.90;;;;;;5119049;28;20111;-55
2023/06/01 06:03:55;;;;;;;9.55;3.22;;;11.60;99.90;;;;;;5118354;28;20050;-57
2023/06/01 06:06:22;;;;;;;9.68;2.30;;;11.70;99.90;;;;;;5118264;28;20087;-57
2023/06/01 06:08:48;;;;;;;10.05;2.50;;;11.60;99.90;;;;;;5118533;28;20080;-57
2023/06/01 06:11:14;;;;;;;10.98;2.95;;;11.70;99.90;;;;;;5117367;28;20062;-56
2023/06/01 06:13:39;;;;;;;10.98;3.05;;;11.60;99.90;;;;;;5117102;28;20115;-57
2023/06/01 06:16:05;;;;;;;11.77;3.90;;;11.70;99.90;;;;;;5118454;28;20055;-58
2023/06/01 06:18:31;;;;;;;9.27;3.03;;;11.50;99.90;;;;;;5118316;28;20071;-57
2023/06/01 06:20:57;;;;;;;10.57;2.63;;;11.50;99.90;;;;;;5118188;28;20040;-57
2023/06/01 06:23:23;;;;;;;9.98;3.05;;;11.60;99.90;;;;;;5118568;28;20101;-57
2023/06/01 06:25:49;;;;;;;7.82;2.25;;;11.60;99.90;;;;;;5117232;28;20492;-57
2023/06/01 06:28:15;;;;;;;7.45;2.00;;;11.60;99.90;;;;;;5118266;28;20047;-57
2023/06/01 06:30:41;;;;;;;6.15;1.90;;;11.70;99.90;;;;;;5117569;28;20081;-57
2023/06/01 06:33:07;;;;;;;10.40;2.28;;;11.70;99.90;;;;;;5117950;28;20043;-57
2023/06/01 06:35:32;;;;;;;6.28;1.95;;;11.70;99.90;;;;;;5118649;28;20058;-58
2023/06/01 06:37:58;;;;;;;7.38;1.90;;;11.70;99.90;;;;;;5118001;27;20051;-57
2023/06/01 06:40:24;;;;;;;7.63;2.00;;;11.70;99.90;;;;;;5118419;28;20040;-58
2023/06/01 06:42:50;;;;;;;5.68;1.90;;;11.70;99.90;;;;;;5117893;28;20055;-57
2023/06/01 06:45:16;;;;;;;10.93;2.40;;;11.90;99.90;;;;;;5118597;27;20066;-57
2023/06/01 06:47:45;;;;;;;9.13;2.85;;;11.90;99.90;;;;;;5117951;28;20051;-58
2023/06/01 06:50:11;;;;;;;9.77;2.60;;;11.70;99.90;;;;;;5118088;28;20303;-57
2023/06/01 06:52:37;;;;;;;9.32;2.55;;;11.70;99.90;;;;;;5118045;28;20050;-57
2023/06/01 06:55:03;;;;;;;10.15;3.42;;;11.80;99.90;;;;;;5117268;28;20067;-55
2023/06/01 06:57:29;;;;;;;7.22;2.70;;;11.80;99.90;;;;;;5116686;28;20055;-57
2023/06/01 06:59:54;;;;;;;9.07;3.08;;;11.80;99.90;;;;;;5116292;28;20063;-56
2023/06/01 07:02:21;;;;;;;12.05;2.75;;;11.90;99.90;;;;;;5117271;28;20048;-57
2023/06/01 07:04:46;;;;;;;6.97;2.47;;;11.80;99.90;;;;;;5117413;28;20082;-57
2023/06/01 07:07:12;;;;;;;7.93;2.67;;;11.70;99.90;;;;;;5117431;28;20066;-58
2023/06/01 07:09:38;;;;;;;8.60;2.90;;;11.70;99.90;;;;;;5116569;28;20135;-57
2023/06/01 07:12:05;;;;;;;7.85;2.80;;;11.50;99.90;;;;;;5117385;28;20098;-58
2023/06/01 07:14:31;;;;;;;9.35;2.85;;;11.70;99.90;;;;;;5117897;28;20055;-57
2023/06/01 07:16:57;;;;;;;8.38;2.78;;;11.60;99.90;;;;;;5116593;28;20039;-54
2023/06/01 07:19:23;;;;;;;7.07;2.80;;;11.60;99.90;;;;;;5117397;27;20081;-57
2023/06/01 07:21:49;;;;;;;9.15;2.40;;;11.70;99.90;;;;;;5117099;28;20118;-55
2023/06/01 07:24:18;;;;;;;6.20;2.47;;;11.80;99.90;;;;;;5116994;28;20051;-57
2023/06/01 07:26:43;;;;;;;7.57;2.53;;;11.80;99.90;;;;;;5117229;28;20100;-57
2023/06/01 07:29:09;;;;;;;7.10;2.30;;;11.80;99.90;;;;;;5116498;28;20075;-57
2023/06/01 07:31:35;;;;;;;8.27;2.50;;;11.60;99.90;;;;;;5117293;28;20043;-57
2023/06/01 07:34:01;;;;;;;6.15;2.15;;;11.50;99.90;;;;;;5117016;28;20128;-57
2023/06/01 07:36:27;;;;;;;6.50;2.45;;;11.50;99.90;;;;;;5117041;28;20043;-57
2023/06/01 07:38:52;;;;;;;5.53;2.30;;;11.50;99.90;;;;;;5116880;28;20043;-57
2023/06/01 07:41:18;;;;;;;6.20;2.13;;;11.50;99.90;;;;;;5116452;28;20086;-57
2023/06/01 07:43:47;;;;;;;9.30;2.15;;;11.40;99.90;;;;;;5116413;28;20039;-56
2023/06/01 07:46:12;;;;;;;5.72;2.10;;;11.70;99.90;;;;;;5116119;28;20048;-57
2023/06/01 07:48:38;;;;;;;5.28;1.88;;;11.60;99.90;;;;;;5117164;28;20079;-57
2023/06/01 07:51:06;;;;;;;6.07;1.80;;;11.70;99.90;;;;;;5116470;28;20043;-55
2023/06/01 07:53:32;;;;;;;7.78;2.10;;;11.50;99.90;;;;;;5115974;28;20036;-57
2023/06/01 07:55:57;;;;;;;7.53;2.22;;;11.60;99.90;;;;;;5116508;28;20059;-57
2023/06/01 07:58:23;;;;;;;6.57;2.15;;;11.80;99.90;;;;;;5116189;28;20057;-56
2023/06/01 08:00:49;;;;;;;7.60;2.60;;;11.70;99.90;;;;;;5116076;28;20058;-56
2023/06/01 08:03:15;;;;;;;11.32;3.00;;;11.90;99.90;;;;;;5116285;28;20124;-56
2023/06/01 08:05:44;;;;;;;8.05;3.03;;;11.60;99.90;;;;;;5116298;28;20107;-57
2023/06/01 08:08:10;;;;;;;8.25;2.88;;;11.60;99.90;;;;;;5114395;28;20437;-56
2023/06/01 08:10:38;;;;;;;9.18;3.00;;;11.70;99.90;;;;;;5115154;28;20443;-57
2023/06/01 08:13:04;;;;;;;12.70;3.40;;;11.80;99.90;;;;;;5115598;28;20051;-56
2023/06/01 08:15:30;;;;;;;7.72;3.30;;;11.90;99.90;;;;;;5116149;28;20077;-57
2023/06/01 08:17:56;;;;;;;10.45;3.50;;;11.80;99.90;;;;;;5114317;28;20040;-57
2023/06/01 08:20:23;;;;;;;13.88;4.35;;;11.90;99.90;;;;;;5115064;28;20672;-56
2023/06/01 08:22:50;;;;;;;13.30;4.25;;;11.70;99.90;;;;;;5116648;28;20072;-56
2023/06/01 08:25:17;;;;;;;12.52;4.47;;;11.80;99.90;;;;;;5113950;28;20039;-56
2023/06/01 08:27:43;;;;;;;15.85;4.07;;;12.00;99.90;;;;;;5115616;28;20188;-57
2023/06/01 08:30:10;;;;;;;12.75;4.22;;;11.80;99.90;;;;;;5114184;28;20126;-55
2023/06/01 08:32:36;;;;;;;8.90;3.33;;;11.80;99.90;;;;;;5115825;28;20100;-56
2023/06/01 08:35:02;;;;;;;10.57;3.25;;;11.90;99.90;;;;;;5116071;28;20072;-55
2023/06/01 08:37:29;;;;;;;14.63;4.53;;;11.90;99.90;;;;;;5115727;28;20051;-57
2023/06/01 08:39:54;;;;;;;14.68;3.38;;;11.90;99.90;;;;;;5116283;28;20044;-57
2023/06/01 08:42:31;;;;;;;11.68;3.75;;;12.00;99.90;;;;;;5114612;28;20081;-56
2023/06/01 08:44:58;;;;;;;8.20;2.92;;;12.10;99.90;;;;;;5096564;28;20047;-57
2023/06/01 08:47:28;;;;;;;9.60;2.50;;;12.10;99.90;;;;;;5115452;28;20054;-57
2023/06/01 08:49:55;;;;;;;11.32;4.05;;;12.20;99.90;;;;;;5114945;28;20122;-57
2023/06/01 08:52:28;;;;;;;9.48;3.00;;;12.20;99.90;;;;;;5114461;28;20565;-56
2023/06/01 08:54:54;;;;;;;9.88;2.72;;;12.40;99.90;;;;;;5113724;28;20043;-56
2023/06/01 08:57:21;;;;;;;10.35;3.13;;;12.50;99.90;;;;;;5115696;28;20135;-57
2023/06/01 08:59:47;;;;;;;7.57;2.85;;;12.60;99.90;;;;;;5115176;28;20055;-57
2023/06/01 09:02:15;;;;;;;11.32;2.92;;;12.60;99.90;;;;;;5114970;28;20051;-57
2023/06/01 09:04:44;;;;;;;13.13;3.75;;;12.60;99.90;;;;;;5114923;28;20050;-56
2023/06/01 09:07:11;;;;;;;10.68;3.05;;;12.70;99.90;;;;;;5114681;28;20053;-56
2023/06/01 09:09:36;;;;;;;12.43;2.92;;;12.70;99.90;;;;;;5114976;28;20046;-57
2023/06/01 09:12:28;;;;;;;11.27;2.92;;;12.40;99.90;;;;;;5097303;28;20128;-57
2023/06/01 09:15:10;;;;;;;10.48;3.25;;;12.50;99.90;;;;;;5115106;28;20048;-57
2023/06/01 09:17:37;;;;;;;11.75;3.08;;;12.40;99.90;;;;;;5114218;28;20036;-57
2023/06/01 09:20:04;;;;;;;12.52;3.08;;;12.40;99.90;;;;;;5115007;28;20155;-56
2023/06/01 09:22:46;;;;;;;10.20;2.63;;;12.40;99.90;;;;;;5114860;28;20036;-56
2023/06/01 09:25:13;;;;;;;13.23;3.22;;;12.30;99.90;;;;;;5114258;28;20066;-57
2023/06/01 09:27:46;;;;;;;12.23;3.35;;;12.40;99.90;;;;;;5114939;28;20051;-58
2023/06/01 09:30:13;;;;;;;12.07;2.47;;;12.40;99.90;;;;;;5114290;28;20082;-57
2023/06/01 09:32:41;;;;;;;14.30;3.05;;;12.50;99.90;;;;;;5113796;28;20047;-57
2023/06/01 09:35:07;;;;;;;11.55;3.58;;;12.50;99.90;;;;;;5114635;28;20069;-57
2023/06/01 09:37:35;;;;;;;11.05;2.53;;;12.60;99.90;;;;;;5114467;28;20068;-55
2023/06/01 09:40:01;;;;;;;11.57;2.60;;;12.60;99.90;;;;;;5115605;28;20047;-57
2023/06/01 09:42:34;;;;;;;9.95;2.88;;;12.60;99.90;;;;;;5113770;28;20051;-56
2023/06/01 09:45:20;;;;;;;9.82;2.45;;;12.70;99.90;;;;;;5112688;28;20087;-57
2023/06/01 09:47:50;;;;;;;9.00;2.55;;;12.40;99.90;;;;;;5114216;28;20108;-56
2023/06/01 09:50:33;;;;;;;15.90;3.30;;;12.60;99.90;;;;;;5111483;28;20046;-56
2023/06/01 09:52:59;;;;;;;9.23;2.75;;;12.60;99.90;;;;;;5112030;28;20107;-56
2023/06/01 09:55:24;;;;;;;12.48;3.40;;;12.80;99.90;;;;;;5113114;28;20075;-57
2023/06/01 09:57:50;;;;;;;12.05;4.10;;;12.70;99.90;;;;;;5114685;28;20134;-57
2023/06/01 10:00:24;;;;;;;10.45;3.22;;;12.60;99.90;;;;;;5114668;28;20130;-57
2023/06/01 10:02:52;;;;;;;15.98;6.55;;;12.70;99.90;;;;;;5114465;28;20075;-57
2023/06/01 10:05:18;;;;;;;10.52;3.53;;;12.70;99.90;;;;;;5114352;28;20040;-56
2023/06/01 10:07:44;;;;;;;10.55;4.38;;;12.80;99.90;;;;;;5114411;28;20081;-57
2023/06/01 10:10:15;;;;;;;9.65;3.70;;;12.60;99.90;;;;;;5115010;28;20051;-56
2023/06/01 10:12:41;;;;;;;11.55;3.30;;;12.50;99.90;;;;;;5114096;28;20063;-57
2023/06/01 10:15:10;;;;;;;8.68;2.80;;;12.60;99.90;;;;;;5116740;28;20047;-57
2023/06/01 10:17:42;;;;;;;12.27;3.40;;;12.80;99.90;;;;;;5116298;28;20759;-57
2023/06/01 10:20:11;;;;;;;9.60;2.70;;;12.80;99.90;;;;;;5117109;28;20122;-57
2023/06/01 10:22:40;;;;;;;12.55;3.00;;;12.70;99.90;;;;;;5116581;28;20043;-57
2023/06/01 10:25:09;;;;;;;8.13;2.70;;;12.80;99.90;;;;;;5116199;28;20032;-56
2023/06/01 10:27:44;;;;;;;10.98;2.75;;;12.80;99.90;;;;;;5117921;28;20100;-57
2023/06/01 10:30:12;;;;;;;14.10;3.30;;;12.90;99.90;;;;;;5117957;28;20053;-57
2023/06/01 10:32:37;;;;;;;14.50;3.40;;;12.90;99.90;;;;;;5117063;28;20048;-57
2023/06/01 10:35:12;;;;;;;9.63;2.78;;;13.00;99.90;;;;;;5117753;28;20448;-56
2023/06/01 10:37:38;;;;;;;12.15;3.42;;;12.90;99.90;;;;;;5115950;28;20047;-57
2023/06/01 10:40:16;;;;;;;11.82;3.30;;;12.90;99.90;;;;;;5118128;28;20055;-56
2023/06/01 10:42:42;;;;;;;10.25;2.65;;;13.10;99.90;;;;;;5117985;28;20039;-57
2023/06/01 10:45:28;;;;;;;11.00;2.95;;;13.10;99.90;;;;;;5120511;28;20054;-57
2023/06/01 10:47:54;;;;;;;9.38;2.58;;;13.00;99.90;;;;;;5121161;28;20067;-57
2023/06/01 10:50:20;;;;;;;10.60;2.88;;;13.10;99.90;;;;;;5121086;28;20039;-57
2023/06/01 10:52:46;;;;;;;11.50;2.60;;;13.00;99.90;;;;;;5121561;28;20444;-57
2023/06/01 10:55:15;;;;;;;8.93;2.70;;;13.10;99.90;;;;;;5120922;28;20148;-57
2023/06/01 10:57:45;;;;;;;8.23;2.60;;;13.00;99.90;;;;;;5119665;28;20150;-57
2023/06/01 11:00:26;;;;;;;8.90;2.78;;;13.00;99.90;;;;;;5121170;28;20059;-57
2023/06/01 11:03:02;;;;;;;8.15;2.45;;;13.30;99.90;;;;;;5119731;28;20036;-55
2023/06/01 11:05:47;;;;;;;10.75;2.50;;;12.80;99.90;;;;;;5121524;28;20040;-57
2023/06/01 11:08:19;;;;;;;10.88;3.08;;;12.90;99.90;;;;;;5120520;28;20266;-56
2023/06/01 11:10:55;;;;;;;8.25;2.33;;;13.20;99.90;;;;;;5120781;28;20046;-57
2023/06/01 11:13:29;;;;;;;11.93;3.20;;;13.10;99.90;;;;;;5120823;28;20066;-56
2023/06/01 11:16:04;;;;;;;12.05;3.17;;;13.40;99.90;;;;;;5120856;28;20043;-58
2023/06/01 11:18:58;;;;;;;11.98;3.78;;;13.10;99.90;;;;;;5120908;28;20047;-56
2023/06/01 11:21:44;;;;;;;12.63;3.22;;;13.20;99.90;;;;;;5120661;28;20124;-55
2023/06/01 11:24:14;;;;;;;8.52;2.75;;;13.40;99.90;;;;;;5120478;28;20060;-57
2023/06/01 11:26:45;;;;;;;14.73;3.50;;;13.50;99.90;;;;;;5120324;28;20043;-57
2023/06/01 11:29:19;;;;;;;10.40;3.72;;;13.10;99.90;;;;;;5120276;28;20491;-57
2023/06/01 11:31:52;;;;;;;13.95;4.30;;;13.10;99.90;;;;;;5120368;28;20684;-57
2023/06/01 11:34:19;;;;;;;11.63;3.60;;;12.90;99.90;;;;;;5120570;28;20110;-56
2023/06/01 11:36:50;;;;;;;8.93;2.97;;;13.10;99.90;;;;;;5120295;28;20054;-57
2023/06/01 11:39:28;;;;;;;11.15;3.42;;;13.20;99.90;;;;;;5120006;28;20051;-57
2023/06/01 11:42:09;;;;;;;7.93;2.72;;;13.20;99.90;;;;;;5120188;28;20051;-57
2023/06/01 11:44:37;;;;;;;9.48;3.17;;;13.20;99.90;;;;;;5120518;28;20071;-57
2023/06/01 11:47:04;;;;;;;8.18;3.08;;;13.10;99.90;;;;;;5120047;27;20165;-56
2023/06/01 11:49:29;;;;;;;12.73;3.10;;;13.30;99.90;;;;;;5119967;28;20602;-57
2023/06/01 11:51:58;;;;;;;9.95;2.85;;;13.20;99.90;;;;;;5119495;28;20070;-56
2023/06/01 11:54:28;;;;;;;12.25;2.90;;;13.40;99.90;;;;;;5119993;28;20048;-57
2023/06/01 11:56:55;;;;;;;9.27;3.35;;;13.20;99.90;;;;;;5118010;28;20066;-56
2023/06/01 11:59:22;;;;;;;11.90;4.10;;;13.20;99.90;;;;;;5119561;28;20179;-57
2023/06/01 12:01:48;;;;;;;11.48;4.10;;;13.20;99.90;;;;;;5119798;28;20048;-58
2023/06/01 12:04:16;;;;;;;8.90;3.58;;;13.00;99.90;;;;;;5119731;28;20056;-56
2023/06/01 12:06:43;;;;;;;10.48;3.25;;;13.10;99.90;;;;;;5119644;28;20514;-56
2023/06/01 12:09:09;;;;;;;8.95;3.20;;;13.00;99.90;;;;;;5118155;28;20131;-57
2023/06/01 12:11:37;;;;;;;10.38;3.28;;;13.10;99.90;;;;;;5118206;28;20035;-57
2023/06/01 12:14:05;;;;;;;10.13;2.47;;;13.30;99.90;;;;;;5119598;28;20044;-56
2023/06/01 12:17:01;;;;;;;8.43;2.70;;;13.20;99.90;;;;;;5118904;28;20047;-57
2023/06/01 12:19:28;;;;;;;9.05;3.08;;;13.00;99.90;;;;;;5119280;28;20085;-57
2023/06/01 12:21:55;;;;;;;8.63;3.08;;;12.90;99.90;;;;;;5118994;28;20047;-57
2023/06/01 12:24:33;;;;;;;9.68;3.03;;;13.10;99.90;;;;;;5119547;28;20035;-57
2023/06/01 12:27:01;;;;;;;8.65;2.47;;;13.30;99.90;;;;;;5119510;28;20048;-57
2023/06/01 12:29:43;;;;;;;7.85;2.42;;;13.20;99.90;;;;;;5117678;28;20052;-57
2023/06/01 12:32:11;;;;;;;8.45;2.60;;;13.20;99.90;;;;;;5119003;28;20052;-56
2023/06/01 12:34:39;;;;;;;9.00;2.92;;;13.20;99.90;;;;;;5119356;28;20070;-56
2023/06/01 12:37:20;;;;;;;9.25;3.05;;;13.20;99.90;;;;;;5119120;28;20035;-54
2023/06/01 12:39:53;;;;;;;10.57;3.85;;;13.00;99.90;;;;;;5119000;28;20047;-57
2023/06/01 12:42:34;;;;;;;10.95;3.97;;;13.20;99.90;;;;;;5118871;28;20112;-57
2023/06/01 12:44:59;;;;;;;10.85;4.05;;;12.90;99.90;;;;;;5118871;28;20071;-57
2023/06/01 12:47:26;;;;;;;12.30;3.63;;;13.00;99.90;;;;;;5118682;28;20096;-56